sensor_id;sensor_type;location;lat;lon;timestamp;temperature;humidity
12006;DHT22;6062;47.294;12.182;2023-03-01T00:01:32;-3.80;53.70
12006;DHT22;6062;47.294;12.182;2023-03-01T00:03:58;-3.90;53.80
12006;DHT22;6062;47.294;12.182;2023-03-01T00:06:25;-3.90;54.40
12006;DHT22;6062;47.294;12.182;2023-03-01T00:08:52;-3.90;55.00
12006;DHT22;6062;47.294;12.182;2023-03-01T00:13:49;-4.00;54.80
12006;DHT22;6062;47.294;12.182;2023-03-01T00:16:22;-4.00;54.70
12006;DHT22;6062;47.294;12.182;2023-03-01T00:18:51;-4.00;54.40
12006;DHT22;6062;47.294;12.182;2023-03-01T00:21:18;-4.10;54.10
12006;DHT22;6062;47.294;12.182;2023-03-01T00:23:46;-4.10;54.10
12006;DHT22;6062;47.294;12.182;2023-03-01T00:26:14;-4.10;54.20
12006;DHT22;6062;47.294;12.182;2023-03-01T00:28:42;-4.10;54.60
12006;DHT22;6062;47.294;12.182;2023-03-01T00:31:14;-4.10;54.60
12006;DHT22;6062;47.294;12.182;2023-03-01T00:33:42;-4.10;54.10
12006;DHT22;6062;47.294;12.182;2023-03-01T00:36:10;-4.10;53.80
12006;DHT22;6062;47.294;12.182;2023-03-01T00:38:38;-4.00;53.80
12006;DHT22;6062;47.294;12.182;2023-03-01T00:41:07;-4.00;53.70
12006;DHT22;6062;47.294;12.182;2023-03-01T00:43:34;-4.00;53.70
12006;DHT22;6062;47.294;12.182;2023-03-01T00:46:10;-4.00;54.00
12006;DHT22;6062;47.294;12.182;2023-03-01T00:48:38;-3.90;54.90
12006;DHT22;6062;47.294;12.182;2023-03-01T00:51:06;-3.90;55.00
12006;DHT22;6062;47.294;12.182;2023-03-01T00:53:33;-3.90;55.00
12006;DHT22;6062;47.294;12.182;2023-03-01T00:55:59;-3.90;54.50
12006;DHT22;6062;47.294;12.182;2023-03-01T00:58:25;-3.90;53.80
12006;DHT22;6062;47.294;12.182;2023-03-01T01:00:51;-4.00;53.50
12006;DHT22;6062;47.294;12.182;2023-03-01T01:03:18;-4.00;53.40
12006;DHT22;6062;47.294;12.182;2023-03-01T01:05:44;-4.00;53.30
12006;DHT22;6062;47.294;12.182;2023-03-01T01:08:10;-4.00;53.20
12006;DHT22;6062;47.294;12.182;2023-03-01T01:10:36;-4.10;53.20
12006;DHT22;6062;47.294;12.182;2023-03-01T01:13:02;-4.10;53.10
12006;DHT22;6062;47.294;12.182;2023-03-01T01:15:28;-4.00;53.20
12006;DHT22;6062;47.294;12.182;2023-03-01T01:17:54;-4.00;53.30
12006;DHT22;6062;47.294;12.182;2023-03-01T01:20:20;-4.00;53.40
12006;DHT22;6062;47.294;12.182;2023-03-01T01:22:46;-4.00;53.40
12006;DHT22;6062;47.294;12.182;2023-03-01T01:25:12;-3.90;53.30
12006;DHT22;6062;47.294;12.182;2023-03-01T01:27:37;-3.90;53.30
12006;DHT22;6062;47.294;12.182;2023-03-01T01:30:04;-3.90;53.30
12006;DHT22;6062;47.294;12.182;2023-03-01T01:32:30;-3.80;53.10
12006;DHT22;6062;47.294;12.182;2023-03-01T01:34:56;-3.70;53.20
12006;DHT22;6062;47.294;12.182;2023-03-01T01:37:21;-3.70;53.20
12006;DHT22;6062;47.294;12.182;2023-03-01T01:39:47;-3.60;53.40
12006;DHT22;6062;47.294;12.182;2023-03-01T01:42:16;-3.50;53.70
12006;DHT22;6062;47.294;12.182;2023-03-01T01:44:45;-3.50;53.40
12006;DHT22;6062;47.294;12.182;2023-03-01T01:47:18;-3.50;52.70
12006;DHT22;6062;47.294;12.182;2023-03-01T01:49:54;-3.50;52.30
12006;DHT22;6062;47.294;12.182;2023-03-01T01:52:32;-3.50;52.10
12006;DHT22;6062;47.294;12.182;2023-03-01T01:55:08;-3.50;52.50
12006;DHT22;6062;47.294;12.182;2023-03-01T01:57:40;-3.60;52.80
12006;DHT22;6062;47.294;12.182;2023-03-01T02:00:14;-3.60;52.40
12006;DHT22;6062;47.294;12.182;2023-03-01T02:02:47;-3.60;52.10
12006;DHT22;6062;47.294;12.182;2023-03-01T02:05:32;-3.60;52.20
12006;DHT22;6062;47.294;12.182;2023-03-01T02:08:13;-3.60;52.30
12006;DHT22;6062;47.294;12.182;2023-03-01T02:10:41;-3.60;52.30
12006;DHT22;6062;47.294;12.182;2023-03-01T02:13:07;-3.60;52.20
12006;DHT22;6062;47.294;12.182;2023-03-01T02:15:35;-3.50;52.30
12006;DHT22;6062;47.294;12.182;2023-03-01T02:18:04;-3.40;52.30
12006;DHT22;6062;47.294;12.182;2023-03-01T02:23:17;-3.20;52.20
12006;DHT22;6062;47.294;12.182;2023-03-01T02:28:30;-3.10;51.70
12006;DHT22;6062;47.294;12.182;2023-03-01T02:30:58;-3.00;51.60
12006;DHT22;6062;47.294;12.182;2023-03-01T02:33:44;-2.90;51.50
12006;DHT22;6062;47.294;12.182;2023-03-01T02:36:17;-2.90;51.10
12006;DHT22;6062;47.294;12.182;2023-03-01T02:38:47;-2.90;50.80
12006;DHT22;6062;47.294;12.182;2023-03-01T02:41:16;-2.80;50.90
12006;DHT22;6062;47.294;12.182;2023-03-01T02:43:45;-2.80;50.90
12006;DHT22;6062;47.294;12.182;2023-03-01T02:46:18;-2.80;50.90
12006;DHT22;6062;47.294;12.182;2023-03-01T02:48:50;-2.80;51.50
12006;DHT22;6062;47.294;12.182;2023-03-01T02:51:31;-2.80;51.60
12006;DHT22;6062;47.294;12.182;2023-03-01T02:57:03;-2.80;50.70
12006;DHT22;6062;47.294;12.182;2023-03-01T02:59:31;-2.80;50.50
12006;DHT22;6062;47.294;12.182;2023-03-01T03:02:05;-2.90;50.40
12006;DHT22;6062;47.294;12.182;2023-03-01T03:04:31;-2.90;50.40
12006;DHT22;6062;47.294;12.182;2023-03-01T03:06:57;-2.90;50.50
12006;DHT22;6062;47.294;12.182;2023-03-01T03:09:23;-2.90;50.70
12006;DHT22;6062;47.294;12.182;2023-03-01T03:11:48;-2.90;50.80
12006;DHT22;6062;47.294;12.182;2023-03-01T03:14:16;-2.90;50.80
12006;DHT22;6062;47.294;12.182;2023-03-01T03:16:49;-2.90;50.90
12006;DHT22;6062;47.294;12.182;2023-03-01T03:19:16;-2.80;51.40
12006;DHT22;6062;47.294;12.182;2023-03-01T03:21:43;-2.70;51.10
12006;DHT22;6062;47.294;12.182;2023-03-01T03:24:09;-2.70;50.70
12006;DHT22;6062;47.294;12.182;2023-03-01T03:26:35;-2.60;50.40
12006;DHT22;6062;47.294;12.182;2023-03-01T03:29:01;-2.60;50.20
12006;DHT22;6062;47.294;12.182;2023-03-01T03:31:27;-2.60;49.90
12006;DHT22;6062;47.294;12.182;2023-03-01T03:33:53;-2.50;49.90
12006;DHT22;6062;47.294;12.182;2023-03-01T03:36:22;-2.60;49.70
12006;DHT22;6062;47.294;12.182;2023-03-01T03:38:49;-2.60;49.70
12006;DHT22;6062;47.294;12.182;2023-03-01T03:41:16;-2.60;49.80
12006;DHT22;6062;47.294;12.182;2023-03-01T03:43:42;-2.60;49.90
12006;DHT22;6062;47.294;12.182;2023-03-01T03:46:11;-2.60;49.90
12006;DHT22;6062;47.294;12.182;2023-03-01T03:48:40;-2.70;49.80
12006;DHT22;6062;47.294;12.182;2023-03-01T03:51:10;-2.60;49.80
12006;DHT22;6062;47.294;12.182;2023-03-01T03:53:37;-2.70;49.80
12006;DHT22;6062;47.294;12.182;2023-03-01T03:56:03;-2.70;49.80
12006;DHT22;6062;47.294;12.182;2023-03-01T03:58:29;-2.70;49.80
12006;DHT22;6062;47.294;12.182;2023-03-01T04:00:56;-2.70;49.90
12006;DHT22;6062;47.294;12.182;2023-03-01T04:03:24;-2.70;49.80
12006;DHT22;6062;47.294;12.182;2023-03-01T04:05:51;-2.70;49.70
12006;DHT22;6062;47.294;12.182;2023-03-01T04:08:19;-2.70;49.60
12006;DHT22;6062;47.294;12.182;2023-03-01T04:10:51;-2.70;49.60
12006;DHT22;6062;47.294;12.182;2023-03-01T04:13:22;-2.70;49.40
12006;DHT22;6062;47.294;12.182;2023-03-01T04:15:51;-2.70;49.20
12006;DHT22;6062;47.294;12.182;2023-03-01T04:18:19;-2.70;49.00
12006;DHT22;6062;47.294;12.182;2023-03-01T04:20:47;-2.70;48.90
12006;DHT22;6062;47.294;12.182;2023-03-01T04:23:15;-2.70;48.90
12006;DHT22;6062;47.294;12.182;2023-03-01T04:25:50;-2.80;48.90
12006;DHT22;6062;47.294;12.182;2023-03-01T04:30:52;-2.80;49.10
12006;DHT22;6062;47.294;12.182;2023-03-01T04:33:18;-2.80;49.10
12006;DHT22;6062;47.294;12.182;2023-03-01T04:35:44;-2.80;49.10
12006;DHT22;6062;47.294;12.182;2023-03-01T04:38:10;-2.80;49.10
12006;DHT22;6062;47.294;12.182;2023-03-01T04:40:36;-2.80;49.20
12006;DHT22;6062;47.294;12.182;2023-03-01T04:43:03;-2.80;49.20
12006;DHT22;6062;47.294;12.182;2023-03-01T04:45:29;-2.80;49.30
12006;DHT22;6062;47.294;12.182;2023-03-01T04:47:56;-2.80;49.30
12006;DHT22;6062;47.294;12.182;2023-03-01T04:50:23;-2.80;49.20
12006;DHT22;6062;47.294;12.182;2023-03-01T04:52:51;-2.80;49.00
12006;DHT22;6062;47.294;12.182;2023-03-01T04:55:17;-2.80;49.00
12006;DHT22;6062;47.294;12.182;2023-03-01T04:57:43;-2.80;48.90
12006;DHT22;6062;47.294;12.182;2023-03-01T05:00:12;-2.80;49.00
12006;DHT22;6062;47.294;12.182;2023-03-01T05:02:56;-2.80;48.90
12006;DHT22;6062;47.294;12.182;2023-03-01T05:05:26;-2.80;48.90
12006;DHT22;6062;47.294;12.182;2023-03-01T05:07:58;-2.80;48.80
12006;DHT22;6062;47.294;12.182;2023-03-01T05:10:27;-2.80;48.80
12006;DHT22;6062;47.294;12.182;2023-03-01T05:12:55;-2.80;48.80
12006;DHT22;6062;47.294;12.182;2023-03-01T05:15:23;-2.80;48.80
12006;DHT22;6062;47.294;12.182;2023-03-01T05:17:54;-2.80;48.70
12006;DHT22;6062;47.294;12.182;2023-03-01T05:20:23;-2.80;48.80
12006;DHT22;6062;47.294;12.182;2023-03-01T05:22:56;-2.80;48.80
12006;DHT22;6062;47.294;12.182;2023-03-01T05:25:25;-2.80;49.00
12006;DHT22;6062;47.294;12.182;2023-03-01T05:27:51;-2.80;49.10
12006;DHT22;6062;47.294;12.182;2023-03-01T05:30:17;-2.80;49.10
12006;DHT22;6062;47.294;12.182;2023-03-01T05:32:49;-2.80;49.20
12006;DHT22;6062;47.294;12.182;2023-03-01T05:35:21;-2.80;49.10
12006;DHT22;6062;47.294;12.182;2023-03-01T05:37:49;-2.70;49.10
12006;DHT22;6062;47.294;12.182;2023-03-01T05:40:19;-2.70;49.00
12006;DHT22;6062;47.294;12.182;2023-03-01T05:42:50;-2.70;48.80
12006;DHT22;6062;47.294;12.182;2023-03-01T05:45:19;-2.70;48.80
12006;DHT22;6062;47.294;12.182;2023-03-01T05:47:48;-2.60;48.90
12006;DHT22;6062;47.294;12.182;2023-03-01T05:50:23;-2.70;48.80
12006;DHT22;6062;47.294;12.182;2023-03-01T05:52:59;-2.70;48.80
12006;DHT22;6062;47.294;12.182;2023-03-01T05:55:28;-2.70;48.80
12006;DHT22;6062;47.294;12.182;2023-03-01T05:57:57;-2.70;48.80
12006;DHT22;6062;47.294;12.182;2023-03-01T06:00:23;-2.70;48.90
12006;DHT22;6062;47.294;12.182;2023-03-01T06:02:49;-2.70;48.90
12006;DHT22;6062;47.294;12.182;2023-03-01T06:05:17;-2.70;48.90
12006;DHT22;6062;47.294;12.182;2023-03-01T06:07:43;-2.70;49.10
12006;DHT22;6062;47.294;12.182;2023-03-01T06:10:10;-2.70;49.20
12006;DHT22;6062;47.294;12.182;2023-03-01T06:12:37;-2.60;49.60
12006;DHT22;6062;47.294;12.182;2023-03-01T06:15:06;-2.60;50.00
12006;DHT22;6062;47.294;12.182;2023-03-01T06:17:35;-2.50;50.40
12006;DHT22;6062;47.294;12.182;2023-03-01T06:20:13;-2.30;50.90
12006;DHT22;6062;47.294;12.182;2023-03-01T06:22:44;-2.00;51.50
12006;DHT22;6062;47.294;12.182;2023-03-01T06:25:13;-1.60;52.00
12006;DHT22;6062;47.294;12.182;2023-03-01T06:27:41;-1.20;51.90
12006;DHT22;6062;47.294;12.182;2023-03-01T06:30:09;-0.70;51.60
12006;DHT22;6062;47.294;12.182;2023-03-01T06:32:36;-0.20;51.30
12006;DHT22;6062;47.294;12.182;2023-03-01T06:35:04;0.30;51.10
12006;DHT22;6062;47.294;12.182;2023-03-01T06:37:30;0.90;51.10
12006;DHT22;6062;47.294;12.182;2023-03-01T06:39:56;1.40;50.70
12006;DHT22;6062;47.294;12.182;2023-03-01T06:42:21;1.90;50.30
12006;DHT22;6062;47.294;12.182;2023-03-01T06:44:47;2.50;49.70
12006;DHT22;6062;47.294;12.182;2023-03-01T06:47:13;3.10;49.30
12006;DHT22;6062;47.294;12.182;2023-03-01T06:49:38;3.60;48.80
12006;DHT22;6062;47.294;12.182;2023-03-01T06:52:04;4.20;48.20
12006;DHT22;6062;47.294;12.182;2023-03-01T06:54:29;4.80;47.60
12006;DHT22;6062;47.294;12.182;2023-03-01T06:56:55;5.30;46.80
12006;DHT22;6062;47.294;12.182;2023-03-01T06:59:21;5.90;46.30
12006;DHT22;6062;47.294;12.182;2023-03-01T07:01:46;6.40;45.40
12006;DHT22;6062;47.294;12.182;2023-03-01T07:04:13;7.00;44.80
12006;DHT22;6062;47.294;12.182;2023-03-01T07:06:39;7.50;44.10
12006;DHT22;6062;47.294;12.182;2023-03-01T07:09:05;8.00;43.50
12006;DHT22;6062;47.294;12.182;2023-03-01T07:11:30;8.50;42.80
12006;DHT22;6062;47.294;12.182;2023-03-01T07:13:56;9.10;42.30
12006;DHT22;6062;47.294;12.182;2023-03-01T07:16:23;9.60;41.50
12006;DHT22;6062;47.294;12.182;2023-03-01T07:18:49;10.20;40.80
12006;DHT22;6062;47.294;12.182;2023-03-01T07:21:15;10.70;40.00
12006;DHT22;6062;47.294;12.182;2023-03-01T07:23:41;11.20;39.40
12006;DHT22;6062;47.294;12.182;2023-03-01T07:26:07;11.70;38.20
12006;DHT22;6062;47.294;12.182;2023-03-01T07:28:33;12.20;36.80
12006;DHT22;6062;47.294;12.182;2023-03-01T07:31:05;12.70;36.50
12006;DHT22;6062;47.294;12.182;2023-03-01T07:33:32;13.20;35.50
12006;DHT22;6062;47.294;12.182;2023-03-01T07:35:59;13.60;34.90
12006;DHT22;6062;47.294;12.182;2023-03-01T07:38:27;14.00;34.30
12006;DHT22;6062;47.294;12.182;2023-03-01T07:40:57;14.40;32.80
12006;DHT22;6062;47.294;12.182;2023-03-01T07:43:24;14.70;33.10
12006;DHT22;6062;47.294;12.182;2023-03-01T07:45:50;15.10;33.00
12006;DHT22;6062;47.294;12.182;2023-03-01T07:48:15;15.40;32.00
12006;DHT22;6062;47.294;12.182;2023-03-01T07:50:41;15.70;31.30
12006;DHT22;6062;47.294;12.182;2023-03-01T07:53:07;16.00;30.40
12006;DHT22;6062;47.294;12.182;2023-03-01T07:55:33;16.40;30.00
12006;DHT22;6062;47.294;12.182;2023-03-01T07:57:59;16.60;29.90
12006;DHT22;6062;47.294;12.182;2023-03-01T08:00:24;16.90;29.30
12006;DHT22;6062;47.294;12.182;2023-03-01T08:02:50;17.30;28.50
12006;DHT22;6062;47.294;12.182;2023-03-01T08:05:16;17.50;27.70
12006;DHT22;6062;47.294;12.182;2023-03-01T08:07:42;17.60;26.80
12006;DHT22;6062;47.294;12.182;2023-03-01T08:10:08;17.70;27.20
12006;DHT22;6062;47.294;12.182;2023-03-01T08:12:34;17.70;27.10
12006;DHT22;6062;47.294;12.182;2023-03-01T08:15:00;17.90;27.00
12006;DHT22;6062;47.294;12.182;2023-03-01T08:17:26;18.00;27.20
12006;DHT22;6062;47.294;12.182;2023-03-01T08:19:51;18.20;27.20
12006;DHT22;6062;47.294;12.182;2023-03-01T08:22:17;18.40;26.40
12006;DHT22;6062;47.294;12.182;2023-03-01T08:24:43;18.70;26.40
12006;DHT22;6062;47.294;12.182;2023-03-01T08:27:08;18.90;26.00
12006;DHT22;6062;47.294;12.182;2023-03-01T08:29:34;19.10;25.70
12006;DHT22;6062;47.294;12.182;2023-03-01T08:32:00;19.30;25.90
12006;DHT22;6062;47.294;12.182;2023-03-01T08:34:26;19.50;25.90
12006;DHT22;6062;47.294;12.182;2023-03-01T08:36:52;19.70;25.30
12006;DHT22;6062;47.294;12.182;2023-03-01T08:39:19;19.90;25.60
12006;DHT22;6062;47.294;12.182;2023-03-01T08:41:46;20.10;25.20
12006;DHT22;6062;47.294;12.182;2023-03-01T08:44:13;20.30;24.70
12006;DHT22;6062;47.294;12.182;2023-03-01T08:46:42;20.50;24.80
12006;DHT22;6062;47.294;12.182;2023-03-01T08:49:12;20.60;24.60
12006;DHT22;6062;47.294;12.182;2023-03-01T08:51:40;20.90;24.20
12006;DHT22;6062;47.294;12.182;2023-03-01T08:54:09;21.00;24.30
12006;DHT22;6062;47.294;12.182;2023-03-01T08:56:38;21.20;23.80
12006;DHT22;6062;47.294;12.182;2023-03-01T08:59:04;21.40;23.60
12006;DHT22;6062;47.294;12.182;2023-03-01T09:01:30;21.50;23.70
12006;DHT22;6062;47.294;12.182;2023-03-01T09:03:55;21.50;23.40
12006;DHT22;6062;47.294;12.182;2023-03-01T09:06:21;21.50;22.30
12006;DHT22;6062;47.294;12.182;2023-03-01T09:08:48;21.40;21.80
12006;DHT22;6062;47.294;12.182;2023-03-01T09:11:18;21.20;22.40
12006;DHT22;6062;47.294;12.182;2023-03-01T09:13:46;21.10;23.00
12006;DHT22;6062;47.294;12.182;2023-03-01T09:16:16;20.90;23.10
12006;DHT22;6062;47.294;12.182;2023-03-01T09:18:44;21.00;23.30
12006;DHT22;6062;47.294;12.182;2023-03-01T09:21:15;21.00;23.50
12006;DHT22;6062;47.294;12.182;2023-03-01T09:23:46;21.10;23.50
12006;DHT22;6062;47.294;12.182;2023-03-01T09:26:18;21.20;23.00
12006;DHT22;6062;47.294;12.182;2023-03-01T09:28:46;21.30;23.00
12006;DHT22;6062;47.294;12.182;2023-03-01T09:31:14;21.40;23.20
12006;DHT22;6062;47.294;12.182;2023-03-01T09:33:42;21.60;23.30
12006;DHT22;6062;47.294;12.182;2023-03-01T09:36:13;21.60;23.40
12006;DHT22;6062;47.294;12.182;2023-03-01T09:38:41;21.70;23.40
12006;DHT22;6062;47.294;12.182;2023-03-01T09:44:01;22.10;23.40
12006;DHT22;6062;47.294;12.182;2023-03-01T09:46:47;22.30;23.30
12006;DHT22;6062;47.294;12.182;2023-03-01T09:49:21;22.60;23.40
12006;DHT22;6062;47.294;12.182;2023-03-01T09:54:47;23.10;22.60
12006;DHT22;6062;47.294;12.182;2023-03-01T09:57:18;23.40;23.00
12006;DHT22;6062;47.294;12.182;2023-03-01T10:03:03;23.80;22.50
12006;DHT22;6062;47.294;12.182;2023-03-01T10:05:57;24.00;22.70
12006;DHT22;6062;47.294;12.182;2023-03-01T10:09:00;24.20;22.60
12006;DHT22;6062;47.294;12.182;2023-03-01T10:11:41;24.40;21.70
12006;DHT22;6062;47.294;12.182;2023-03-01T10:14:27;24.40;21.00
12006;DHT22;6062;47.294;12.182;2023-03-01T10:17:04;24.30;20.70
12006;DHT22;6062;47.294;12.182;2023-03-01T10:19:37;24.00;20.40
12006;DHT22;6062;47.294;12.182;2023-03-01T10:22:26;23.60;20.40
12006;DHT22;6062;47.294;12.182;2023-03-01T10:24:56;23.10;20.40
12006;DHT22;6062;47.294;12.182;2023-03-01T10:30:19;22.00;21.20
12006;DHT22;6062;47.294;12.182;2023-03-01T10:32:50;21.40;21.70
12006;DHT22;6062;47.294;12.182;2023-03-01T10:35:26;20.90;22.20
12006;DHT22;6062;47.294;12.182;2023-03-01T10:38:13;20.50;22.40
12006;DHT22;6062;47.294;12.182;2023-03-01T10:40:59;20.00;23.10
12006;DHT22;6062;47.294;12.182;2023-03-01T10:43:49;19.60;22.60
12006;DHT22;6062;47.294;12.182;2023-03-01T10:46:29;19.00;22.50
12006;DHT22;6062;47.294;12.182;2023-03-01T10:49:20;18.30;23.20
12006;DHT22;6062;47.294;12.182;2023-03-01T10:51:50;17.60;23.80
12006;DHT22;6062;47.294;12.182;2023-03-01T10:54:20;16.90;25.10
12006;DHT22;6062;47.294;12.182;2023-03-01T10:56:54;16.40;26.10
12006;DHT22;6062;47.294;12.182;2023-03-01T10:59:36;16.10;27.60
12006;DHT22;6062;47.294;12.182;2023-03-01T11:04:35;16.10;28.60
12006;DHT22;6062;47.294;12.182;2023-03-01T11:07:02;16.30;28.60
12006;DHT22;6062;47.294;12.182;2023-03-01T11:09:31;16.70;28.50
12006;DHT22;6062;47.294;12.182;2023-03-01T11:12:08;16.90;28.20
12006;DHT22;6062;47.294;12.182;2023-03-01T11:14:50;17.30;28.30
12006;DHT22;6062;47.294;12.182;2023-03-01T11:17:23;17.60;27.90
12006;DHT22;6062;47.294;12.182;2023-03-01T11:23:09;18.40;28.00
12006;DHT22;6062;47.294;12.182;2023-03-01T11:25:40;18.80;27.80
12006;DHT22;6062;47.294;12.182;2023-03-01T11:28:16;19.10;27.40
12006;DHT22;6062;47.294;12.182;2023-03-01T11:30:59;19.30;27.30
12006;DHT22;6062;47.294;12.182;2023-03-01T11:45:23;20.10;26.50
12006;DHT22;6062;47.294;12.182;2023-03-01T11:48:17;20.30;25.90
12006;DHT22;6062;47.294;12.182;2023-03-01T12:00:30;20.60;24.00
12006;DHT22;6062;47.294;12.182;2023-03-01T12:03:21;20.10;23.30
12006;DHT22;6062;47.294;12.182;2023-03-01T12:09:38;18.20;24.10
12006;DHT22;6062;47.294;12.182;2023-03-01T12:20:42;14.20;28.00
12006;DHT22;6062;47.294;12.182;2023-03-01T12:26:58;12.70;29.30
12006;DHT22;6062;47.294;12.182;2023-03-01T12:37:57;10.30;32.40
12006;DHT22;6062;47.294;12.182;2023-03-01T12:43:08;9.70;34.40
12006;DHT22;6062;47.294;12.182;2023-03-01T12:49:06;9.20;34.80
12006;DHT22;6062;47.294;12.182;2023-03-01T12:51:37;9.00;35.70
12006;DHT22;6062;47.294;12.182;2023-03-01T12:54:30;8.70;35.70
12006;DHT22;6062;47.294;12.182;2023-03-01T13:03:00;7.80;37.40
12006;DHT22;6062;47.294;12.182;2023-03-01T13:06:11;7.60;38.50
12006;DHT22;6062;47.294;12.182;2023-03-01T13:08:53;7.40;39.00
12006;DHT22;6062;47.294;12.182;2023-03-01T13:11:27;7.30;39.10
12006;DHT22;6062;47.294;12.182;2023-03-01T13:16:49;7.00;40.10
12006;DHT22;6062;47.294;12.182;2023-03-01T13:19:25;6.90;40.10
12006;DHT22;6062;47.294;12.182;2023-03-01T13:21:53;6.80;40.20
12006;DHT22;6062;47.294;12.182;2023-03-01T13:24:27;6.70;40.40
12006;DHT22;6062;47.294;12.182;2023-03-01T13:29:53;6.50;41.20
12006;DHT22;6062;47.294;12.182;2023-03-01T13:37:40;6.00;41.80
12006;DHT22;6062;47.294;12.182;2023-03-01T13:42:48;5.70;43.30
12006;DHT22;6062;47.294;12.182;2023-03-01T13:45:26;5.60;43.50
12006;DHT22;6062;47.294;12.182;2023-03-01T13:48:27;5.50;43.80
12006;DHT22;6062;47.294;12.182;2023-03-01T13:50:58;5.30;44.10
12006;DHT22;6062;47.294;12.182;2023-03-01T13:53:30;5.20;44.30
12006;DHT22;6062;47.294;12.182;2023-03-01T13:56:06;5.20;44.80
12006;DHT22;6062;47.294;12.182;2023-03-01T13:59:05;5.00;45.00
12006;DHT22;6062;47.294;12.182;2023-03-01T14:01:40;4.90;45.50
12006;DHT22;6062;47.294;12.182;2023-03-01T14:04:28;4.90;45.40
12006;DHT22;6062;47.294;12.182;2023-03-01T14:07:32;4.80;46.10
12006;DHT22;6062;47.294;12.182;2023-03-01T14:10:00;4.80;46.00
12006;DHT22;6062;47.294;12.182;2023-03-01T14:12:51;4.80;46.00
12006;DHT22;6062;47.294;12.182;2023-03-01T14:15:39;4.80;46.50
12006;DHT22;6062;47.294;12.182;2023-03-01T14:18:27;4.90;47.10
12006;DHT22;6062;47.294;12.182;2023-03-01T14:20:59;5.00;46.40
12006;DHT22;6062;47.294;12.182;2023-03-01T14:23:24;5.10;46.10
12006;DHT22;6062;47.294;12.182;2023-03-01T14:25:54;5.10;46.00
12006;DHT22;6062;47.294;12.182;2023-03-01T14:28:24;5.10;46.10
12006;DHT22;6062;47.294;12.182;2023-03-01T14:30:54;5.10;46.20
12006;DHT22;6062;47.294;12.182;2023-03-01T14:36:00;5.00;46.40
12006;DHT22;6062;47.294;12.182;2023-03-01T14:38:41;4.90;46.60
12006;DHT22;6062;47.294;12.182;2023-03-01T14:41:30;4.80;46.90
12006;DHT22;6062;47.294;12.182;2023-03-01T14:44:01;4.80;46.90
12006;DHT22;6062;47.294;12.182;2023-03-01T14:46:35;4.70;46.90
12006;DHT22;6062;47.294;12.182;2023-03-01T14:51:42;4.60;47.30
12006;DHT22;6062;47.294;12.182;2023-03-01T14:54:27;4.60;47.30
12006;DHT22;6062;47.294;12.182;2023-03-01T14:57:01;4.60;47.60
12006;DHT22;6062;47.294;12.182;2023-03-01T14:59:27;4.70;47.80
12006;DHT22;6062;47.294;12.182;2023-03-01T15:01:56;4.70;48.00
12006;DHT22;6062;47.294;12.182;2023-03-01T15:04:24;4.80;48.20
12006;DHT22;6062;47.294;12.182;2023-03-01T15:06:52;4.80;48.20
12006;DHT22;6062;47.294;12.182;2023-03-01T15:09:20;4.90;48.20
12006;DHT22;6062;47.294;12.182;2023-03-01T15:11:47;5.00;48.40
12006;DHT22;6062;47.294;12.182;2023-03-01T15:16:52;5.10;48.00
12006;DHT22;6062;47.294;12.182;2023-03-01T15:19:18;5.20;47.60
12006;DHT22;6062;47.294;12.182;2023-03-01T15:21:48;5.20;47.20
12006;DHT22;6062;47.294;12.182;2023-03-01T15:24:23;5.30;47.00
12006;DHT22;6062;47.294;12.182;2023-03-01T15:26:56;5.30;46.90
12006;DHT22;6062;47.294;12.182;2023-03-01T15:29:29;5.30;47.00
12006;DHT22;6062;47.294;12.182;2023-03-01T15:32:02;5.30;46.90
12006;DHT22;6062;47.294;12.182;2023-03-01T15:34:32;5.30;46.90
12006;DHT22;6062;47.294;12.182;2023-03-01T15:37:33;5.30;47.00
12006;DHT22;6062;47.294;12.182;2023-03-01T15:40:28;5.30;47.30
12006;DHT22;6062;47.294;12.182;2023-03-01T15:43:05;5.30;47.40
12006;DHT22;6062;47.294;12.182;2023-03-01T15:45:58;5.30;47.30
12006;DHT22;6062;47.294;12.182;2023-03-01T15:48:24;5.30;47.30
12006;DHT22;6062;47.294;12.182;2023-03-01T15:50:56;5.30;47.20
12006;DHT22;6062;47.294;12.182;2023-03-01T15:53:24;5.30;47.40
12006;DHT22;6062;47.294;12.182;2023-03-01T15:55:51;5.30;47.30
12006;DHT22;6062;47.294;12.182;2023-03-01T15:58:23;5.30;47.30
12006;DHT22;6062;47.294;12.182;2023-03-01T16:00:50;5.30;47.40
12006;DHT22;6062;47.294;12.182;2023-03-01T16:03:22;5.20;47.20
12006;DHT22;6062;47.294;12.182;2023-03-01T16:05:49;5.20;47.10
12006;DHT22;6062;47.294;12.182;2023-03-01T16:08:16;5.10;47.20
12006;DHT22;6062;47.294;12.182;2023-03-01T16:10:43;5.10;47.20
12006;DHT22;6062;47.294;12.182;2023-03-01T16:13:10;5.10;47.30
12006;DHT22;6062;47.294;12.182;2023-03-01T16:15:39;5.00;47.30
12006;DHT22;6062;47.294;12.182;2023-03-01T16:18:06;4.90;47.40
12006;DHT22;6062;47.294;12.182;2023-03-01T16:20:35;4.90;47.50
12006;DHT22;6062;47.294;12.182;2023-03-01T16:23:03;4.80;47.60
12006;DHT22;6062;47.294;12.182;2023-03-01T16:25:31;4.80;47.80
12006;DHT22;6062;47.294;12.182;2023-03-01T16:27:58;4.70;47.90
12006;DHT22;6062;47.294;12.182;2023-03-01T16:30:26;4.60;48.00
12006;DHT22;6062;47.294;12.182;2023-03-01T16:32:52;4.60;48.10
12006;DHT22;6062;47.294;12.182;2023-03-01T16:35:21;4.50;48.20
12006;DHT22;6062;47.294;12.182;2023-03-01T16:37:48;4.40;48.40
12006;DHT22;6062;47.294;12.182;2023-03-01T16:40:20;4.40;48.40
12006;DHT22;6062;47.294;12.182;2023-03-01T16:42:52;4.30;48.70
12006;DHT22;6062;47.294;12.182;2023-03-01T16:45:19;4.20;48.60
12006;DHT22;6062;47.294;12.182;2023-03-01T16:47:45;4.20;48.80
12006;DHT22;6062;47.294;12.182;2023-03-01T16:50:11;4.10;49.00
12006;DHT22;6062;47.294;12.182;2023-03-01T16:52:37;4.00;49.10
12006;DHT22;6062;47.294;12.182;2023-03-01T16:55:04;3.90;49.50
12006;DHT22;6062;47.294;12.182;2023-03-01T16:57:34;3.80;49.80
12006;DHT22;6062;47.294;12.182;2023-03-01T16:59:59;3.70;50.60
12006;DHT22;6062;47.294;12.182;2023-03-01T17:02:25;3.60;51.10
12006;DHT22;6062;47.294;12.182;2023-03-01T17:04:55;3.40;50.60
12006;DHT22;6062;47.294;12.182;2023-03-01T17:07:21;3.30;50.90
12006;DHT22;6062;47.294;12.182;2023-03-01T17:09:47;3.20;50.90
12006;DHT22;6062;47.294;12.182;2023-03-01T17:12:14;3.10;51.30
12006;DHT22;6062;47.294;12.182;2023-03-01T17:14:41;3.00;51.50
12006;DHT22;6062;47.294;12.182;2023-03-01T17:17:08;2.90;51.80
12006;DHT22;6062;47.294;12.182;2023-03-01T17:19:35;2.90;51.80
12006;DHT22;6062;47.294;12.182;2023-03-01T17:22:03;2.80;51.80
12006;DHT22;6062;47.294;12.182;2023-03-01T17:24:33;2.70;51.80
12006;DHT22;6062;47.294;12.182;2023-03-01T17:26:59;2.70;52.10
12006;DHT22;6062;47.294;12.182;2023-03-01T17:29:25;2.70;51.90
12006;DHT22;6062;47.294;12.182;2023-03-01T17:31:50;2.60;52.10
12006;DHT22;6062;47.294;12.182;2023-03-01T17:34:16;2.60;52.10
12006;DHT22;6062;47.294;12.182;2023-03-01T17:36:42;2.50;52.10
12006;DHT22;6062;47.294;12.182;2023-03-01T17:39:09;2.50;52.10
12006;DHT22;6062;47.294;12.182;2023-03-01T17:41:35;2.40;52.10
12006;DHT22;6062;47.294;12.182;2023-03-01T17:44:01;2.40;52.10
12006;DHT22;6062;47.294;12.182;2023-03-01T17:46:27;2.40;52.20